Time;durP1;ratioP1;P1;durP2;ratioP2;P2;SDS_P1;SDS_P2;PMS_P1;PMS_P2;Temp;Humidity;BMP_temperature;BMP_pressure;BME280_temperature;BME280_humidity;BME280_pressure;Samples;Min_cycle;Max_cycle;Signal;HPM_P1;HPM_P2
2023/03/14 00:00:22;;;;;;;;;1.00;0.00;;;;;13.69;100.00;99107.84;5036414;28;60510;-79
2023/03/14 00:02:52;;;;;;;;;1.33;0.67;;;;;13.64;100.00;99102.72;5036866;28;46559;-79
2023/03/14 00:05:17;;;;;;;;;2.33;0.00;;;;;13.63;100.00;99109.78;5018879;28;45315;-79
2023/03/14 00:07:43;;;;;;;;;0.00;0.00;;;;;13.61;100.00;99105.44;5032820;28;45387;-79
2023/03/14 00:10:12;;;;;;;;;0.00;0.00;;;;;13.60;100.00;99103.69;5035613;28;66189;-79
2023/03/14 00:12:37;;;;;;;;;0.33;0.00;;;;;13.56;100.00;99097.59;5019050;28;46573;-79
2023/03/14 00:15:04;;;;;;;;;0.00;0.00;;;;;13.52;100.00;99101.25;5036871;28;45447;-79
2023/03/14 00:17:30;;;;;;;;;0.00;0.00;;;;;13.48;100.00;99086.38;5017954;28;45532;-79
2023/03/14 00:19:56;;;;;;;;;0.00;0.00;;;;;13.49;100.00;99089.88;5036074;28;45471;-79
2023/03/14 00:22:21;;;;;;;;;0.00;0.00;;;;;13.48;100.00;99096.09;5017129;28;46352;-79
2023/03/14 00:24:47;;;;;;;;;0.33;0.00;;;;;13.45;100.00;99086.44;5017449;28;45476;-79
2023/03/14 00:27:12;;;;;;;;;1.00;0.00;;;;;13.41;100.00;99083.91;5034706;28;45542;-79
2023/03/14 00:29:38;;;;;;;;;0.00;0.00;;;;;13.43;100.00;99092.72;5148977;22;63189;-79
2023/03/14 00:32:03;;;;;;;;;1.00;0.00;;;;;13.42;100.00;99083.00;5056688;28;45517;-79
2023/03/14 00:34:32;;;;;;;;;0.33;0.00;;;;;13.41;100.00;99073.31;5055267;28;45557;-79
2023/03/14 00:36:58;;;;;;;;;0.00;0.00;;;;;13.39;100.00;99070.72;5054730;28;46567;-79
2023/03/14 00:39:23;;;;;;;;;1.67;0.00;;;;;13.39;100.00;99076.03;5056672;28;45222;-79
2023/03/14 00:41:48;;;;;;;;;1.00;0.00;;;;;13.43;100.00;99063.56;5050029;28;54475;-79
2023/03/14 00:44:14;;;;;;;;;0.00;0.00;;;;;13.43;100.00;99072.38;5055420;28;65654;-79
2023/03/14 00:46:39;;;;;;;;;0.00;0.00;;;;;13.46;100.00;99066.97;5055970;28;60346;-79
2023/03/14 00:49:04;;;;;;;;;0.67;0.00;;;;;13.48;100.00;99067.81;5053345;28;62480;-79
2023/03/14 00:51:30;;;;;;;;;1.00;0.00;;;;;13.49;100.00;99064.25;5056102;28;47636;-79
2023/03/14 00:53:55;;;;;;;;;1.00;0.00;;;;;13.49;100.00;99063.38;5054873;28;68191;-79
2023/03/14 00:56:20;;;;;;;;;0.00;0.00;;;;;13.49;100.00;99072.19;5059729;28;45413;-79
2023/03/14 00:58:46;;;;;;;;;0.00;0.00;;;;;13.49;100.00;99066.91;5055611;28;63369;-79
2023/03/14 01:01:16;;;;;;;;;0.00;0.00;;;;;13.48;100.00;99067.81;5055925;28;60455;-78
2023/03/14 01:03:42;;;;;;;;;1.00;0.00;;;;;13.44;100.00;99063.50;5054354;28;45524;-77
2023/03/14 01:06:17;;;;;;;;;1.33;0.00;;;;;13.42;100.00;99072.41;5055730;28;45427;-79
2023/03/14 01:08:43;;;;;;;;;2.00;0.00;;;;;13.36;100.00;99066.34;5054038;28;45659;-79
2023/03/14 01:11:15;;;;;;;;;1.67;0.00;;;;;13.33;100.00;99071.75;5051051;28;45870;-79
2023/03/14 01:13:41;;;;;;;;;2.33;0.00;;;;;13.32;100.00;99075.34;5051131;28;46377;-79
2023/03/14 01:16:08;;;;;;;;;2.00;0.00;;;;;13.34;100.00;99077.94;5052149;28;45933;-79
2023/03/14 01:18:37;;;;;;;;;0.67;0.00;;;;;13.32;100.00;99067.38;5054011;28;45579;-79
2023/03/14 01:21:04;;;;;;;;;0.00;0.00;;;;;13.34;100.00;99060.25;5053919;28;47853;-79
2023/03/14 01:23:29;;;;;;;;;0.00;0.00;;;;;13.38;100.00;99076.06;5054695;28;46013;-79
2023/03/14 01:25:55;;;;;;;;;3.67;0.00;;;;;13.38;100.00;99071.63;5055471;28;45302;-79
2023/03/14 01:28:20;;;;;;;;;2.33;0.00;;;;;13.39;100.00;99072.50;5054511;28;45466;-80
2023/03/14 01:30:45;;;;;;;;;0.00;0.00;;;;;13.39;100.00;99062.75;5055317;28;50642;-78
2023/03/14 01:33:12;;;;;;;;;2.00;0.00;;;;;13.40;100.00;99072.44;5053850;28;55786;-79
2023/03/14 01:35:38;;;;;;;;;4.00;0.00;;;;;13.41;100.00;99060.06;5055912;28;45462;-79
2023/03/14 01:38:03;;;;;;;;;0.00;0.00;;;;;13.39;100.00;99056.59;5056260;28;45454;-78
2023/03/14 01:40:28;;;;;;;;;2.00;0.00;;;;;13.41;100.00;99068.88;5053737;28;71065;-79
2023/03/14 01:43:05;;;;;;;;;0.00;0.00;;;;;13.40;100.00;99061.84;5055604;28;66026;-79
2023/03/14 01:46:04;;;;;;;;;1.00;0.00;;;;;13.40;100.00;99061.84;5037122;28;45765;-79
2023/03/14 01:48:38;;;;;;;;;2.67;0.00;;;;;13.37;100.00;99059.31;5056017;28;45665;-79
2023/03/14 01:51:06;;;;;;;;;0.00;0.00;;;;;13.39;100.00;99064.56;5054157;28;47182;-79
2023/03/14 01:53:31;;;;;;;;;2.67;0.00;;;;;13.37;100.00;99064.59;5053955;28;45592;-78
2023/03/14 01:55:57;;;;;;;;;0.00;0.00;;;;;13.40;100.00;99066.28;5054551;28;58771;-78
2023/03/14 01:58:25;;;;;;;;;0.00;0.00;;;;;13.42;100.00;99060.00;5051973;28;65632;-79
2023/03/14 02:00:50;;;;;;;;;0.00;0.00;;;;;13.43;100.00;99069.72;5054416;28;47779;-79
2023/03/14 02:03:17;;;;;;;;;0.00;0.00;;;;;13.43;100.00;99067.06;5055541;28;45794;-79
2023/03/14 02:05:44;;;;;;;;;0.00;0.00;;;;;13.41;100.00;99070.66;5052843;28;55655;-79
2023/03/14 02:08:18;;;;;;;;;0.00;0.00;;;;;13.38;100.00;99076.06;5050574;28;45449;-79
2023/03/14 02:10:45;;;;;;;;;0.00;0.00;;;;;13.35;100.00;99075.22;5053380;28;46312;-80
2023/03/14 02:13:11;;;;;;;;;3.00;0.00;;;;;13.39;100.00;99068.06;5049006;28;45412;-79
2023/03/14 02:15:37;;;;;;;;;0.00;0.00;;;;;13.43;100.00;99085.63;5053366;28;62789;-79
2023/03/14 02:18:03;;;;;;;;;0.00;0.00;;;;;13.43;100.00;99084.75;5054557;28;51483;-79
2023/03/14 02:20:53;;;;;;;;;0.00;0.00;;;;;13.44;100.00;99092.66;5054605;28;45843;-79
2023/03/14 02:23:53;;;;;;;;;0.00;0.00;;;;;13.45;100.00;99097.06;5048367;28;45498;-79
2023/03/14 02:26:23;;;;;;;;;1.00;0.00;;;;;13.46;100.00;99079.34;5054218;28;45229;-79
2023/03/14 02:28:48;;;;;;;;;0.00;0.00;;;;;13.47;100.00;99076.66;5058691;28;45274;-80
2023/03/14 02:31:14;;;;;;;;;0.67;0.00;;;;;13.51;100.00;99072.13;5055627;28;48121;-79
2023/03/14 02:33:40;;;;;;;;;0.00;0.00;;;;;13.50;100.00;99071.28;5057224;28;45469;-79
2023/03/14 02:36:09;;;;;;;;;1.00;0.00;;;;;13.52;100.00;99071.22;5057905;28;45485;-78
2023/03/14 02:38:47;;;;;;;;;0.67;0.00;;;;;13.53;100.00;99067.66;5048221;28;45455;-79
2023/03/14 02:41:12;;;;;;;;;0.00;0.00;;;;;13.51;100.00;99072.13;5056970;28;46635;-78
2023/03/14 02:43:37;;;;;;;;;0.00;0.00;;;;;13.52;100.00;99063.25;5052867;28;45533;-77
2023/03/14 02:46:05;;;;;;;;;0.33;0.00;;;;;13.49;100.00;99072.19;5048353;28;51530;-78
2023/03/14 02:48:35;;;;;;;;;0.00;0.00;;;;;13.48;100.00;99056.34;5052503;28;45331;-79
2023/03/14 02:51:01;;;;;;;;;0.00;0.00;;;;;13.46;100.00;99043.09;5053772;28;46330;-79
2023/03/14 02:53:29;;;;;;;;;0.00;0.00;;;;;13.46;100.00;99052.84;5048983;28;45421;-79
2023/03/14 02:55:55;;;;;;;;;0.00;0.00;;;;;13.47;100.00;99051.94;5054462;28;46197;-79
2023/03/14 02:58:20;;;;;;;;;1.00;0.00;;;;;13.45;100.00;99059.94;5052163;28;46410;-79
2023/03/14 03:00:46;;;;;;;;;0.00;0.00;;;;;13.44;100.00;99060.00;5058125;28;47020;-79
2023/03/14 03:03:11;;;;;;;;;0.00;0.00;;;;;13.45;100.00;99054.63;5055455;28;45446;-79
2023/03/14 03:05:37;;;;;;;;;0.00;0.00;;;;;13.45;100.00;99054.63;5056866;28;45315;-79
2023/03/14 03:08:03;;;;;;;;;0.00;0.00;;;;;13.46;100.00;99064.31;5039590;28;45565;-79
2023/03/14 03:10:28;;;;;;;;;0.00;0.00;;;;;13.47;100.00;99067.84;5057966;28;46201;-79
2023/03/14 03:12:54;;;;;;;;;1.00;0.00;;;;;13.44;100.00;99055.53;5049280;28;45485;-79
2023/03/14 03:15:19;;;;;;;;;0.00;0.00;;;;;13.46;100.00;99069.63;5056375;28;45592;-79
2023/03/14 03:17:44;;;;;;;;;0.00;0.00;;;;;13.44;100.00;99065.28;5051654;28;45478;-79
2023/03/14 03:20:10;;;;;;;;;0.00;0.00;;;;;13.39;100.00;99073.38;5051878;28;63887;-78
2023/03/14 03:22:37;;;;;;;;;1.67;0.00;;;;;13.35;100.00;99067.28;5060810;28;45329;-79
2023/03/14 03:25:03;;;;;;;;;0.00;0.00;;;;;13.36;100.00;99073.44;5056394;28;45528;-79
2023/03/14 03:27:33;;;;;;;;;0.00;0.00;;;;;13.34;100.00;99081.44;5057029;28;45259;-79
2023/03/14 03:29:59;;;;;;;;;0.00;0.00;;;;;13.28;100.00;99068.38;5056047;28;47674;-79
2023/03/14 03:32:25;;;;;;;;;0.00;0.00;;;;;13.24;100.00;99090.56;5057122;28;45477;-79
2023/03/14 03:34:50;;;;;;;;;0.00;0.00;;;;;13.22;100.00;99083.59;5050674;28;45350;-79
2023/03/14 03:37:15;;;;;;;;;0.00;0.00;;;;;13.18;100.00;99082.75;5057346;28;59026;-79
2023/03/14 03:39:41;;;;;;;;;0.00;0.00;;;;;13.17;100.00;99096.94;5053054;28;47816;-77
2023/03/14 03:42:06;;;;;;;;;0.00;0.00;;;;;13.16;100.00;99092.53;5049307;28;45457;-79
2023/03/14 03:44:31;;;;;;;;;0.00;0.00;;;;;13.18;100.00;99098.66;5055819;28;63637;-79
2023/03/14 03:46:57;;;;;;;;;0.00;0.00;;;;;13.19;100.00;99095.09;5045668;28;65296;-79
2023/03/14 03:49:22;;;;;;;;;0.00;0.00;;;;;13.22;100.00;99107.44;5054762;28;70281;-79
2023/03/14 03:51:47;;;;;;;;;0.00;0.00;;;;;13.20;100.00;99098.59;5049900;28;63958;-78
2023/03/14 03:54:13;;;;;;;;;0.00;0.00;;;;;13.23;100.00;99101.22;5056999;28;45337;-79
2023/03/14 03:56:38;;;;;;;;;0.00;0.00;;;;;13.22;100.00;99105.66;5053064;28;63093;-79
2023/03/14 03:59:03;;;;;;;;;1.00;0.00;;;;;13.23;100.00;99109.16;5050082;28;72907;-78
2023/03/14 04:01:29;;;;;;;;;0.00;0.00;;;;;13.23;100.00;99110.03;5056270;28;63836;-79
2023/03/14 04:03:54;;;;;;;;;1.00;0.00;;;;;13.24;100.00;99111.78;5055733;28;63130;-79
2023/03/14 04:06:19;;;;;;;;;0.00;0.00;;;;;13.24;100.00;99116.22;5056173;28;57168;-79
2023/03/14 04:08:45;;;;;;;;;0.00;0.00;;;;;13.25;100.00;99116.16;5053421;28;47498;-79
2023/03/14 04:11:10;;;;;;;;;0.00;0.00;;;;;13.24;100.00;99117.06;5055472;28;45495;-79
2023/03/14 04:13:36;;;;;;;;;0.00;0.00;;;;;13.27;100.00;99117.00;5054737;28;45532;-79
2023/03/14 04:16:01;;;;;;;;;1.00;0.00;;;;;13.25;100.00;99128.53;5054962;28;45528;-78
2023/03/14 04:18:26;;;;;;;;;1.00;0.00;;;;;13.23;100.00;99138.31;5051186;28;70929;-79
2023/03/14 04:20:53;;;;;;;;;0.00;0.00;;;;;13.22;100.00;99128.66;5055846;28;45302;-79
2023/03/14 04:23:18;;;;;;;;;0.00;0.00;;;;;13.22;100.00;99139.25;5057032;28;45169;-79
2023/03/14 04:25:44;;;;;;;;;0.00;0.00;;;;;13.19;100.00;99140.16;5051974;28;45500;-79
2023/03/14 04:28:09;;;;;;;;;0.00;0.00;;;;;13.18;100.00;99145.50;5054937;28;70165;-79
2023/03/14 04:30:34;;;;;;;;;0.00;0.00;;;;;13.13;100.00;99150.03;5054098;28;51824;-79
2023/03/14 04:33:00;;;;;;;;;0.00;0.00;;;;;13.10;100.00;99162.47;5051281;28;45490;-78
2023/03/14 04:35:25;;;;;;;;;0.00;0.00;;;;;13.06;100.00;99165.25;5052892;28;45407;-79
2023/03/14 04:37:51;;;;;;;;;0.00;0.00;;;;;13.05;100.00;99163.50;5046151;28;46862;-79
2023/03/14 04:40:17;;;;;;;;;0.00;0.00;;;;;13.03;100.00;99176.78;5056925;28;45415;-79
2023/03/14 04:42:43;;;;;;;;;0.00;0.00;;;;;13.05;100.00;99184.72;5056632;28;45536;-79
2023/03/14 04:45:08;;;;;;;;;1.00;0.00;;;;;13.06;100.00;99208.50;5050286;28;49347;-77
2023/03/14 04:47:34;;;;;;;;;0.00;0.00;;;;;13.02;100.00;99230.69;5046129;28;47327;-78
2023/03/14 04:49:59;;;;;;;;;0.00;0.00;;;;;12.91;100.00;99304.25;5054162;28;55934;-78
2023/03/14 04:52:25;;;;;;;;;3.00;0.00;;;;;12.73;100.00;99256.97;5054300;28;66312;-79
2023/03/14 04:54:50;;;;;;;;;0.00;0.00;;;;;12.51;100.00;99267.19;5049095;28;45918;-78
2023/03/14 04:57:16;;;;;;;;;2.33;0.00;;;;;12.33;100.00;99324.91;5052110;28;70819;-78
2023/03/14 04:59:41;;;;;;;;;0.33;0.00;;;;;12.15;100.00;99300.63;5048912;28;45382;-80
2023/03/14 05:02:07;;;;;;;;;1.00;1.00;;;;;12.02;100.00;99318.47;5055184;28;45498;-79
2023/03/14 05:04:33;;;;;;;;;0.67;0.33;;;;;11.96;100.00;99326.53;5052168;28;62291;-79
2023/03/14 05:06:59;;;;;;;;;2.00;0.67;;;;;11.87;100.00;99359.31;5050289;28;46587;-78
2023/03/14 05:09:24;;;;;;;;;1.00;1.00;;;;;11.82;100.00;99349.72;5050783;28;45462;-80
2023/03/14 05:11:49;;;;;;;;;3.33;1.00;;;;;11.77;100.00;99337.44;5054795;28;63136;-79
2023/03/14 05:14:15;;;;;;;;;4.67;1.00;;;;;11.71;100.00;99363.09;5051924;28;62711;-79
2023/03/14 05:16:40;;;;;;;;;0.67;0.67;;;;;11.65;100.00;99352.63;5055920;28;46583;-80
2023/03/14 05:19:05;;;;;;;;;1.67;1.67;;;;;11.62;100.00;99360.63;5051057;28;70527;-80
2023/03/14 05:21:31;;;;;;;;;5.67;1.00;;;;;11.55;100.00;99384.50;5058630;28;64370;-78
2023/03/14 05:23:56;;;;;;;;;3.00;0.00;;;;;11.57;100.00;99402.13;5052789;28;65254;-79
2023/03/14 05:26:21;;;;;;;;;4.00;1.00;;;;;11.55;100.00;99386.25;5055046;28;68082;-79
2023/03/14 05:28:47;;;;;;;;;3.33;0.67;;;;;11.55;100.00;99402.13;5047625;28;47263;-78
2023/03/14 05:31:12;;;;;;;;;1.33;0.00;;;;;11.54;100.00;99411.81;5052569;28;64712;-78
2023/03/14 05:33:37;;;;;;;;;2.00;1.00;;;;;11.50;100.00;99420.72;5047140;28;45535;-77
2023/03/14 05:36:03;;;;;;;;;4.33;1.00;;;;;11.50;100.00;99428.66;5054049;28;46786;-79
2023/03/14 05:38:28;;;;;;;;;4.33;1.33;;;;;11.48;100.00;99443.66;5050352;28;45283;-77
2023/03/14 05:40:54;;;;;;;;;1.33;0.00;;;;;11.47;100.00;99443.69;5054486;28;62206;-79
2023/03/14 05:43:19;;;;;;;;;2.00;0.33;;;;;11.45;100.00;99464.84;5053630;28;57207;-78
2023/03/14 05:45:44;;;;;;;;;1.00;1.00;;;;;11.44;100.00;99455.16;5052843;28;74563;-78
2023/03/14 05:48:10;;;;;;;;;2.00;1.00;;;;;11.38;100.00;99476.38;5050869;28;60335;-80
2023/03/14 05:50:35;;;;;;;;;3.33;2.00;;;;;11.35;100.00;99478.22;5055009;28;45530;-79
2023/03/14 05:53:00;;;;;;;;;2.67;1.00;;;;;11.33;100.00;99493.19;5054300;28;45960;-76
2023/03/14 05:55:26;;;;;;;;;2.33;1.00;;;;;11.30;100.00;99519.69;5049911;28;61429;-75
2023/03/14 05:57:53;;;;;;;;;4.33;1.00;;;;;11.28;100.00;99522.31;5053325;28;68399;-84
2023/03/14 06:00:19;;;;;;;;;1.00;0.00;;;;;11.26;100.00;99530.28;5045922;28;45490;-81
2023/03/14 06:02:44;;;;;;;;;5.00;1.33;;;;;11.24;100.00;99542.66;5055435;28;47149;-77
2023/03/14 06:05:10;;;;;;;;;0.33;0.33;;;;;11.18;100.00;99557.69;5053677;28;46563;-81
2023/03/14 06:07:35;;;;;;;;;0.67;0.67;;;;;11.11;100.00;99566.59;5054247;28;67835;-77
2023/03/14 06:10:00;;;;;;;;;2.00;1.00;;;;;11.05;100.00;99574.59;5054474;28;65378;-80
2023/03/14 06:12:26;;;;;;;;;1.33;1.00;;;;;10.98;100.00;99587.00;5052881;28;64041;-79
2023/03/14 06:14:51;;;;;;;;;2.00;0.00;;;;;10.93;100.00;99594.09;5050003;28;47094;-76
2023/03/14 06:17:16;;;;;;;;;2.00;1.00;;;;;10.91;100.00;99607.28;5053183;28;68023;-82
2023/03/14 06:19:42;;;;;;;;;1.00;1.00;;;;;10.88;100.00;99606.47;5053955;28;63907;-81
2023/03/14 06:22:07;;;;;;;;;3.00;2.00;;;;;10.82;100.00;99612.69;5053153;28;64425;-80
2023/03/14 06:24:32;;;;;;;;;3.33;2.00;;;;;10.76;100.00;99636.50;5047166;28;66535;-81
2023/03/14 06:26:58;;;;;;;;;1.00;1.00;;;;;10.70;100.00;99636.53;5052968;28;64696;-78
2023/03/14 06:29:23;;;;;;;;;1.33;0.33;;;;;10.70;100.00;99655.00;5053364;28;63579;-82
2023/03/14 06:31:48;;;;;;;;;2.00;1.00;;;;;10.67;100.00;99661.19;5051989;28;62831;-81
2023/03/14 06:34:14;;;;;;;;;6.00;2.67;;;;;10.69;100.00;99672.63;5046426;28;50308;-78
2023/03/14 06:36:39;;;;;;;;;2.00;1.33;;;;;10.67;100.00;99682.31;5053092;28;67063;-80
2023/03/14 06:39:04;;;;;;;;;7.33;2.00;;;;;10.66;100.00;99695.53;5051274;28;65499;-81
2023/03/14 06:41:30;;;;;;;;;3.00;0.00;;;;;10.65;100.00;99710.50;5052238;28;56856;-80
2023/03/14 06:43:55;;;;;;;;;2.00;2.00;;;;;10.68;100.00;99728.06;5047675;28;64080;-81
2023/03/14 06:46:20;;;;;;;;;3.33;2.33;;;;;10.68;100.00;99736.00;5049943;28;45348;-78
2023/03/14 06:48:46;;;;;;;;;5.67;2.67;;;;;10.69;100.00;99743.03;5052946;28;51473;-78
2023/03/14 06:51:11;;;;;;;;;1.33;1.33;;;;;10.71;100.00;99762.38;5049360;28;45279;-81
2023/03/14 06:53:36;;;;;;;;;2.00;1.00;;;;;10.70;100.00;99764.13;5051923;28;46402;-79
2023/03/14 06:56:02;;;;;;;;;2.00;1.00;;;;;10.69;100.00;99777.34;5048083;28;45298;-78
2023/03/14 06:58:27;;;;;;;;;1.00;1.00;;;;;10.65;100.00;99784.44;5050912;28;45568;-80
2023/03/14 07:00:54;;;;;;;;;2.00;2.00;;;;;10.65;100.00;99786.16;5047379;28;45215;-79
2023/03/14 07:03:19;;;;;;;;;0.00;0.00;;;;;10.63;100.00;99786.19;5041662;28;46758;-79
2023/03/14 07:05:45;;;;;;;;;4.00;1.00;;;;;10.66;100.00;99802.00;5051132;28;45385;-79
2023/03/14 07:08:10;;;;;;;;;1.00;1.00;;;;;10.61;100.00;99802.94;5052152;28;45257;-79
2023/03/14 07:10:36;;;;;;;;;2.00;1.00;;;;;10.61;100.00;99808.22;5046644;28;46562;-80
2023/03/14 07:13:01;;;;;;;;;2.00;2.00;;;;;10.63;100.00;99814.34;5049064;28;45446;-79
2023/03/14 07:15:26;;;;;;;;;0.33;0.33;;;;;10.58;100.00;99824.91;5051755;28;67151;-78
2023/03/14 07:17:52;;;;;;;;;2.00;1.00;;;;;10.54;100.00;99824.94;5050749;28;46755;-80
2023/03/14 07:20:17;;;;;;;;;1.00;1.00;;;;;10.53;100.00;99841.66;5051235;28;48304;-80
2023/03/14 07:22:42;;;;;;;;;2.33;1.00;;;;;10.51;100.00;99836.41;5051085;28;46383;-78
2023/03/14 07:25:11;;;;;;;;;1.67;0.00;;;;;10.51;100.00;99861.91;5053190;28;46398;-79
2023/03/14 07:27:37;;;;;;;;;2.00;1.00;;;;;10.49;100.00;99870.72;5052857;28;45414;-79
2023/03/14 07:30:03;;;;;;;;;1.00;0.00;;;;;10.47;100.00;99872.47;5055200;28;45418;-78
2023/03/14 07:32:28;;;;;;;;;0.67;0.00;;;;;10.46;100.00;99889.19;5041809;28;46303;-82
2023/03/14 07:34:54;;;;;;;;;3.00;1.67;;;;;10.40;100.00;99889.22;5052900;28;65874;-79
2023/03/14 07:37:19;;;;;;;;;2.00;0.00;;;;;10.37;100.00;99899.78;5052827;28;45500;-77
2023/03/14 07:39:45;;;;;;;;;1.00;1.00;;;;;10.40;100.00;99901.56;5053970;28;46157;-79
2023/03/14 07:42:10;;;;;;;;;0.00;0.00;;;;;10.41;100.00;99912.09;5052188;28;68861;-83
2023/03/14 07:44:36;;;;;;;;;1.67;0.33;;;;;10.41;100.00;99925.28;5054372;28;46029;-82
2023/03/14 07:47:01;;;;;;;;;3.33;0.00;;;;;10.40;100.00;99920.03;5068429;27;45627;-82
2023/03/14 07:49:27;;;;;;;;;1.00;1.00;;;;;10.41;100.00;99921.78;5055226;28;55150;-84
2023/03/14 07:51:52;;;;;;;;;2.00;0.33;;;;;10.44;100.00;99906.81;5049295;28;47631;-84
2023/03/14 07:54:17;;;;;;;;;2.00;0.00;;;;;10.49;100.00;99931.44;5048508;28;59043;-82
2023/03/14 07:56:42;;;;;;;;;1.00;1.00;;;;;10.52;100.00;99935.81;5050262;28;63906;-84
2023/03/14 07:59:08;;;;;;;;;2.00;0.33;;;;;10.56;100.00;99932.28;5051508;28;63196;-83
2023/03/14 08:01:34;;;;;;;;;0.00;0.00;;;;;10.63;100.00;99960.41;5054926;28;46780;-80
2023/03/14 08:03:59;;;;;;;;;2.67;0.67;;;;;10.67;100.00;99953.38;5046983;28;45660;-83
2023/03/14 08:06:24;;;;;;;;;1.00;0.00;;;;;10.68;100.00;99955.13;5054005;28;46047;-87
2023/03/14 08:08:50;;;;;;;;;1.67;0.00;;;;;10.70;100.00;99961.25;5052712;28;55301;-80
2023/03/14 08:11:15;;;;;;;;;2.00;0.00;;;;;10.72;100.00;99973.59;5055713;28;45290;-79
2023/03/14 08:13:40;;;;;;;;;0.00;0.00;;;;;10.74;100.00;99953.31;5055144;28;45729;-81
2023/03/14 08:16:06;;;;;;;;;2.67;0.67;;;;;10.85;100.00;99982.31;5056163;28;47850;-84
2023/03/14 08:18:32;;;;;;;;;0.00;0.00;;;;;10.91;100.00;99984.94;5049635;28;45578;-84
2023/03/14 08:20:57;;;;;;;;;2.00;0.00;;;;;10.94;100.00;99984.94;5053514;28;46256;-81
2023/03/14 08:23:23;;;;;;;;;1.67;1.00;;;;;10.93;100.00;100004.31;5047551;28;45595;-82
2023/03/14 08:25:50;;;;;;;;;1.00;1.00;;;;;10.90;100.00;100000.81;5053792;28;45259;-80
2023/03/14 08:28:15;;;;;;;;;1.00;1.00;;;;;10.89;100.00;99993.78;5049253;28;45440;-86
2023/03/14 08:30:40;;;;;;;;;1.00;0.00;;;;;10.90;100.00;100012.25;5054961;28;48522;-83
2023/03/14 08:33:06;;;;;;;;;5.00;1.00;;;;;10.94;100.00;100019.28;5052854;28;68735;-84
2023/03/14 08:35:31;;;;;;;;;3.67;1.00;;;;;10.97;100.00;100034.22;5051008;28;63609;-83
2023/03/14 08:37:57;;;;;;;;;2.00;1.00;;;;;11.01;100.00;100025.41;5046511;28;52684;-83
2023/03/14 08:40:22;;;;;;;;;0.33;0.33;;;;;11.10;100.00;100040.34;5047951;28;71068;-83
2023/03/14 08:42:47;;;;;;;;;3.00;1.00;;;;;11.17;100.00;100036.78;5049651;28;45322;-82
2023/03/14 08:45:14;;;;;;;;;1.00;1.00;;;;;11.21;100.00;100039.44;5048930;28;63913;-82
2023/03/14 08:47:40;;;;;;;;;3.00;1.00;;;;;11.28;100.00;100034.97;5051504;28;45659;-81
2023/03/14 08:50:06;;;;;;;;;2.00;1.00;;;;;11.39;100.00;100042.84;5050637;28;49161;-83
2023/03/14 08:52:32;;;;;;;;;1.67;0.00;;;;;11.55;100.00;100037.47;5052944;28;45459;-84
2023/03/14 08:54:58;;;;;;;;;0.00;0.00;;;;;11.77;100.00;100055.84;5049556;28;45468;-84
2023/03/14 08:57:27;;;;;;;;;0.67;0.67;;;;;11.97;100.00;100054.00;5049596;28;45450;-84
2023/03/14 08:59:54;;;;;;;;;1.00;1.00;;;;;12.14;100.00;100043.28;5053589;28;46559;-83
2023/03/14 09:02:20;;;;;;;;;0.00;0.00;;;;;12.24;100.00;100047.59;5042723;28;45583;-83
2023/03/14 09:04:45;;;;;;;;;1.67;0.00;;;;;12.23;100.00;100056.44;5048011;28;45462;-86
2023/03/14 09:07:10;;;;;;;;;1.00;1.00;;;;;12.22;100.00;100062.63;5050680;28;60459;-82
2023/03/14 09:09:36;;;;;;;;;0.33;0.00;;;;;12.18;100.00;100066.19;5052264;28;47392;-83
2023/03/14 09:12:02;;;;;;;;;2.00;1.00;;;;;12.16;100.00;100078.56;5051089;28;45978;-83
2023/03/14 09:14:27;;;;;;;;;2.00;0.00;;;;;12.10;100.00;100083.91;5037042;28;45446;-84
2023/03/14 09:16:52;;;;;;;;;0.00;0.00;;;;;12.08;100.00;100096.25;5048625;28;45441;-85
2023/03/14 09:19:18;;;;;;;;;1.67;0.00;;;;;12.05;100.00;100115.69;5049160;28;46376;-87
2023/03/14 09:21:43;;;;;;;;;2.00;0.00;;;;;11.92;100.00;100151.03;5042638;28;45493;-82
2023/03/14 09:24:08;;;;;;;;;3.00;0.67;;;;;11.74;100.00;100138.75;5049886;28;63251;-86
2023/03/14 09:26:34;;;;;;;;;0.00;0.00;;;;;11.57;100.00;100145.91;5049991;28;63052;-85
2023/03/14 09:28:59;;;;;;;;;0.00;0.00;;;;;11.48;100.00;100177.63;5052367;28;45751;-83
2023/03/14 09:31:24;;;;;;;;;2.00;0.00;;;;;11.32;100.00;100174.16;5050665;28;66520;-82
2023/03/14 09:33:50;;;;;;;;;0.00;0.00;;;;;11.11;100.00;100171.56;5049150;28;57360;-84
2023/03/14 09:36:15;;;;;;;;;0.00;0.00;;;;;10.88;100.00;100187.47;5048002;28;50931;-84
2023/03/14 09:38:40;;;;;;;;;0.00;0.00;;;;;10.80;100.00;100198.00;5049471;28;68175;-86
2023/03/14 09:41:14;;;;;;;;;0.00;0.00;;;;;10.75;100.00;100203.28;5048943;28;45488;-87
2023/03/14 09:43:40;;;;;;;;;0.00;0.00;;;;;10.73;100.00;100191.84;5046434;28;45519;-86
2023/03/14 09:46:07;;;;;;;;;1.00;0.00;;;;;10.82;100.00;100204.19;5048534;28;62951;-83
2023/03/14 09:48:33;;;;;;;;;1.00;0.00;;;;;10.99;100.00;100202.41;5040730;28;48107;-83
2023/03/14 09:51:02;;;;;;;;;0.00;0.00;;;;;11.20;100.00;100201.50;5048692;28;45563;-85
2023/03/14 09:53:37;;;;;;;;;0.00;0.00;;;;;11.28;100.00;100234.06;5047179;28;45470;-83
2023/03/14 09:56:03;;;;;;;;;0.00;0.00;;;;;11.33;100.00;100256.97;5054156;28;46231;-82
2023/03/14 09:58:29;;;;;;;;;1.00;0.00;;;;;11.21;100.00;100266.69;5046617;28;46423;-84
2023/03/14 10:00:56;;;;;;;;;0.00;0.00;;;;;11.10;100.00;100257.00;5037285;28;67893;-84
2023/03/14 10:03:34;;;;;;;;;0.33;0.00;;;;;11.01;100.00;100253.47;5061259;28;65478;-85
2023/03/14 10:06:00;;;;;;;;;0.00;0.00;;;;;11.08;100.00;100269.31;5051594;28;45665;-84
2023/03/14 10:08:25;;;;;;;;;2.00;0.00;;;;;11.07;100.00;100257.00;5034857;28;48436;-85
2023/03/14 10:10:51;;;;;;;;;3.00;0.00;;;;;11.14;100.00;100275.50;5048930;28;45496;-79
2023/03/14 10:13:18;;;;;;;;;1.00;0.00;;;;;11.24;100.00;100274.63;5050373;28;45507;-84
2023/03/14 10:15:50;;;;;;;;;0.00;0.00;;;;;11.24;100.00;100273.75;5043447;28;45568;-85
2023/03/14 10:18:15;;;;;;;;;0.00;0.00;;;;;11.24;100.00;100271.97;5048818;28;46502;-84
2023/03/14 10:20:44;;;;;;;;;1.00;0.00;;;;;11.27;100.00;100276.38;5052052;28;45456;-83
2023/03/14 10:23:12;;;;;;;;;0.00;0.00;;;;;11.19;100.00;100286.94;5051586;28;45514;-84
2023/03/14 10:25:40;;;;;;;;;0.00;0.00;;;;;11.06;100.00;100282.53;5046687;28;45500;-83
2023/03/14 10:28:28;;;;;;;;;1.00;0.00;;;;;10.95;100.00;100284.28;5045866;28;45555;-82
2023/03/14 10:30:54;;;;;;;;;2.33;0.00;;;;;10.91;100.00;100296.59;5048005;28;45580;-85
2023/03/14 10:33:22;;;;;;;;;0.00;0.00;;;;;10.89;100.00;100300.13;5048867;28;45600;-82
2023/03/14 10:36:15;;;;;;;;;1.00;1.00;;;;;10.87;100.00;100294.88;5047805;28;45527;-82
2023/03/14 10:38:41;;;;;;;;;3.00;0.00;;;;;10.92;100.00;100297.47;5038803;28;45725;-83
2023/03/14 10:41:16;;;;;;;;;1.00;0.00;;;;;11.01;100.00;100295.72;5045578;28;50769;-84
2023/03/14 10:43:42;;;;;;;;;0.00;0.00;;;;;11.07;100.00;100318.63;5044781;28;45460;-83
2023/03/14 10:46:15;;;;;;;;;0.00;0.00;;;;;11.13;100.00;100297.53;5052457;28;53022;-85
2023/03/14 10:48:41;;;;;;;;;1.00;0.00;;;;;11.18;100.00;100324.81;5053194;28;46140;-81
2023/03/14 10:51:10;;;;;;;;;0.00;0.00;;;;;11.30;100.00;100310.72;5055915;28;45411;-83
2023/03/14 10:53:46;;;;;;;;;0.00;0.00;;;;;11.34;100.00;100322.16;5033683;28;45677;-81
2023/03/14 10:56:13;;;;;;;;;3.00;1.00;;;;;11.36;100.00;100318.66;5043673;28;45381;-84
2023/03/14 10:58:41;;;;;;;;;2.00;0.00;;;;;11.41;100.00;100340.69;5030921;28;47827;-82
2023/03/14 11:01:41;;;;;;;;;1.00;0.00;;;;;11.41;100.00;100337.16;5051688;28;45530;-83
2023/03/14 11:04:35;;;;;;;;;1.00;0.00;;;;;11.45;100.00;100331.88;5053639;28;45519;-82
2023/03/14 11:07:09;;;;;;;;;0.67;0.00;;;;;11.50;100.00;100339.78;5054477;28;45502;-79
2023/03/14 11:09:50;;;;;;;;;3.00;0.00;;;;;11.58;100.00;100348.59;5051373;28;46458;-77
2023/03/14 11:12:30;;;;;;;;;0.00;0.00;;;;;11.67;100.00;100351.25;5048632;28;45469;-80
2023/03/14 11:15:02;;;;;;;;;1.00;1.00;;;;;11.68;100.00;100338.91;5056977;28;45478;-77
2023/03/14 11:17:37;;;;;;;;;0.00;0.00;;;;;11.76;100.00;100352.97;5046349;28;45563;-77
2023/03/14 11:20:32;;;;;;;;;0.00;0.00;;;;;11.83;100.00;100360.06;5045330;28;45753;-79
2023/03/14 11:23:03;;;;;;;;;0.00;0.00;;;;;11.93;100.00;100380.34;5056316;28;46982;-83